Time;durP1;ratioP1;P1;durP2;ratioP2;P2;SDS_P1;SDS_P2;PMS_P1;PMS_P2;Temp;Humidity;BMP_temperature;BMP_pressure;BME280_temperature;BME280_humidity;BME280_pressure;Samples;Min_cycle;Max_cycle;Signal;HPM_P1;HPM_P2
2023/07/11 00:00:18;;;;;;;2.80;2.28;;;18.90;99.10;19.00;100926.00;;;;4988886;28;82715;-66
2023/07/11 00:02:46;;;;;;;3.55;1.80;;;18.90;99.30;19.00;100925.00;;;;4996219;28;82789;-66
2023/07/11 00:05:14;;;;;;;3.03;2.03;;;18.90;99.70;19.00;100933.00;;;;4992929;27;83756;-66
2023/07/11 00:07:41;;;;;;;3.50;2.70;;;18.90;99.60;18.90;100936.00;;;;4989179;28;82690;-68
2023/07/11 00:10:10;;;;;;;4.55;2.80;;;18.90;99.80;18.90;100930.00;;;;4988875;28;94403;-67
2023/07/11 00:12:36;;;;;;;2.42;2.22;;;18.80;99.90;18.90;100932.00;;;;4993751;28;83017;-66
2023/07/11 00:15:04;;;;;;;3.53;2.53;;;18.80;99.90;18.80;100943.00;;;;4990263;28;83459;-67
2023/07/11 00:17:29;;;;;;;2.53;2.33;;;18.70;99.90;18.80;100937.00;;;;4992860;28;83959;-68
2023/07/11 00:19:58;;;;;;;2.95;2.03;;;18.70;99.90;18.70;100942.00;;;;4987611;28;83254;-68
2023/07/11 00:22:27;;;;;;;2.28;1.85;;;18.60;99.90;18.70;100936.00;;;;4988285;28;83224;-68
2023/07/11 00:24:53;;;;;;;2.38;2.17;;;18.60;99.90;18.60;100942.00;;;;4988280;28;82674;-67
2023/07/11 00:27:21;;;;;;;3.75;2.72;;;18.50;99.90;18.50;100940.00;;;;4986122;27;110989;-67
2023/07/11 00:29:47;;;;;;;3.17;2.35;;;18.50;99.90;18.50;100939.00;;;;4990680;28;82515;-66
2023/07/11 00:32:13;;;;;;;2.80;1.90;;;18.40;99.90;18.40;100936.00;;;;4987332;27;112163;-66
2023/07/11 00:34:38;;;;;;;2.80;2.42;;;18.40;99.90;18.40;100932.00;;;;4989190;28;91714;-67
2023/07/11 00:37:05;;;;;;;3.70;2.15;;;18.30;99.90;18.30;100932.00;;;;4989247;28;89519;-67
2023/07/11 00:39:34;;;;;;;4.18;3.40;;;18.30;99.90;18.20;100926.00;;;;4994024;28;82912;-68
2023/07/11 00:42:00;;;;;;;3.30;1.75;;;18.20;99.90;18.20;100933.00;;;;4991607;27;104762;-68
2023/07/11 00:44:26;;;;;;;2.88;2.60;;;18.10;99.90;18.10;100932.00;;;;4986944;28;83031;-67
2023/07/11 00:46:52;;;;;;;2.42;2.17;;;18.10;99.90;18.10;100927.00;;;;4992243;28;99255;-67
2023/07/11 00:49:22;;;;;;;2.65;1.90;;;18.00;99.90;18.10;100924.00;;;;4989465;28;107270;-66
2023/07/11 00:51:56;;;;;;;4.63;2.30;;;18.00;99.90;18.00;100933.00;;;;4992636;27;114462;-66
2023/07/11 00:54:29;;;;;;;2.42;2.22;;;17.90;99.90;17.90;100926.00;;;;4986022;28;82801;-66
2023/07/11 00:56:56;;;;;;;2.58;2.38;;;17.90;99.90;17.90;100927.00;;;;4994249;28;94090;-67
2023/07/11 00:59:23;;;;;;;3.55;3.25;;;17.80;99.90;17.90;100925.00;;;;4992975;28;82750;-67
2023/07/11 01:02:22;;;;;;;5.07;3.95;;;17.80;99.90;17.80;100919.00;;;;4988518;28;82629;-67
2023/07/11 01:04:47;;;;;;;3.67;3.22;;;17.70;99.90;17.70;100921.00;;;;4989740;28;82754;-68
2023/07/11 01:07:20;;;;;;;4.55;2.55;;;17.70;99.90;17.70;100921.00;;;;4988298;28;110609;-67
2023/07/11 01:09:45;;;;;;;4.43;2.60;;;17.60;99.90;17.60;100914.00;;;;4990240;28;82853;-67
2023/07/11 01:12:13;;;;;;;3.13;2.72;;;17.60;99.90;17.60;100918.00;;;;4992205;27;109752;-66
2023/07/11 01:14:44;;;;;;;3.53;2.97;;;17.50;99.90;17.50;100916.00;;;;4992976;28;83055;-67
2023/07/11 01:17:30;;;;;;;4.07;3.05;;;17.40;99.90;17.40;100905.00;;;;4990131;28;90250;-67
2023/07/11 01:20:00;;;;;;;3.97;3.05;;;17.30;99.90;17.40;100903.00;;;;4984962;28;82809;-67
2023/07/11 01:22:29;;;;;;;3.08;2.58;;;17.30;99.90;17.30;100908.00;;;;4992427;28;101537;-67
2023/07/11 01:25:00;;;;;;;4.97;2.60;;;17.20;99.90;17.30;100901.00;;;;4977792;28;84348;-67
2023/07/11 01:27:26;;;;;;;2.88;2.63;;;17.20;99.90;17.30;100903.00;;;;4995499;28;82526;-67
2023/07/11 01:29:52;;;;;;;3.00;2.38;;;17.20;99.90;17.20;100902.00;;;;4992452;27;82810;-67
2023/07/11 01:32:19;;;;;;;7.90;3.58;;;17.20;99.90;17.20;100905.00;;;;4989222;28;84231;-67
2023/07/11 01:34:45;;;;;;;2.45;2.20;;;17.20;99.90;17.20;100903.00;;;;4993074;28;84455;-66
2023/07/11 01:37:11;;;;;;;3.22;2.55;;;17.10;99.90;17.10;100908.00;;;;4992581;28;82800;-67
2023/07/11 01:39:37;;;;;;;4.90;2.83;;;17.10;99.90;17.10;100901.00;;;;4995525;28;108785;-68
2023/07/11 01:42:03;;;;;;;3.33;2.80;;;17.00;99.90;17.10;100902.00;;;;4993958;28;104205;-68
2023/07/11 01:44:30;;;;;;;2.38;2.10;;;17.00;99.90;17.00;100904.00;;;;4995195;28;90787;-68
2023/07/11 01:46:56;;;;;;;4.22;3.17;;;16.90;99.90;17.00;100895.00;;;;4989373;28;82864;-68
2023/07/11 01:49:22;;;;;;;6.20;3.28;;;16.90;99.90;16.90;100907.00;;;;4990245;28;99555;-68
2023/07/11 01:51:47;;;;;;;2.80;2.50;;;16.80;99.90;16.90;100896.00;;;;4992004;28;110068;-68
2023/07/11 01:54:14;;;;;;;3.60;2.63;;;16.80;99.90;16.80;100896.00;;;;4973159;28;84854;-68
2023/07/11 01:56:39;;;;;;;3.80;2.95;;;16.80;99.90;16.80;100888.00;;;;4992585;27;83738;-67
2023/07/11 01:59:08;;;;;;;3.45;2.47;;;16.70;99.90;16.80;100889.00;;;;4987897;28;108254;-67
2023/07/11 02:01:37;;;;;;;4.10;3.05;;;16.70;99.90;16.80;100890.00;;;;4989277;28;83315;-68
2023/07/11 02:04:02;;;;;;;2.83;2.55;;;16.70;99.90;16.70;100895.00;;;;4990711;28;104730;-68
2023/07/11 02:06:28;;;;;;;3.58;2.97;;;16.60;99.90;16.70;100893.00;;;;4985146;28;82741;-68
2023/07/11 02:08:54;;;;;;;2.83;2.53;;;16.60;99.90;16.60;100901.00;;;;4994047;28;108962;-67
2023/07/11 02:11:19;;;;;;;3.47;2.28;;;16.60;99.90;16.60;100899.00;;;;4990837;28;111192;-68
2023/07/11 02:13:45;;;;;;;3.08;2.58;;;16.50;99.90;16.60;100900.00;;;;4993061;28;112770;-67
2023/07/11 02:16:11;;;;;;;3.28;2.40;;;16.50;99.90;16.50;100894.00;;;;4991262;28;110498;-67
2023/07/11 02:18:39;;;;;;;4.50;3.25;;;16.50;99.90;16.50;100897.00;;;;4991093;28;109109;-67
2023/07/11 02:21:05;;;;;;;4.10;3.17;;;16.40;99.90;16.40;100890.00;;;;4988329;28;83697;-68
2023/07/11 02:23:31;;;;;;;2.95;2.45;;;16.40;99.90;16.40;100889.00;;;;4991456;27;85265;-67
2023/07/11 02:25:56;;;;;;;2.97;2.65;;;16.30;99.90;16.40;100889.00;;;;4967343;27;110383;-67
2023/07/11 02:28:23;;;;;;;2.58;2.38;;;16.30;99.90;16.40;100890.00;;;;4991730;28;108260;-68
2023/07/11 02:30:48;;;;;;;3.72;3.38;;;16.30;99.90;16.40;100895.00;;;;4993699;27;83867;-67
2023/07/11 02:33:14;;;;;;;4.97;2.83;;;16.30;99.90;16.30;100888.00;;;;4992086;28;87956;-68
2023/07/11 02:35:40;;;;;;;2.88;2.63;;;16.30;99.90;16.30;100891.00;;;;4992547;28;101924;-68
2023/07/11 02:38:05;;;;;;;5.70;2.65;;;16.20;99.90;16.20;100891.00;;;;4991318;28;109506;-68
2023/07/11 02:40:31;;;;;;;2.97;2.45;;;16.10;99.90;16.10;100887.00;;;;4990427;28;112379;-68
2023/07/11 02:42:57;;;;;;;4.75;3.25;;;16.10;99.90;16.00;100887.00;;;;4992409;28;111977;-68
2023/07/11 02:45:23;;;;;;;4.95;2.83;;;16.00;99.90;16.00;100893.00;;;;4989926;28;109088;-68
2023/07/11 02:47:49;;;;;;;3.13;2.70;;;15.90;99.90;16.00;100892.00;;;;4992225;28;98318;-68
2023/07/11 02:50:15;;;;;;;4.55;3.45;;;15.90;99.90;16.00;100901.00;;;;4989687;28;82560;-68
2023/07/11 02:52:40;;;;;;;4.85;3.53;;;15.90;99.90;15.90;100893.00;;;;4988731;28;113514;-68
2023/07/11 02:55:07;;;;;;;4.00;3.45;;;15.90;99.90;15.90;100896.00;;;;4993097;28;110059;-68
2023/07/11 02:57:33;;;;;;;3.65;2.88;;;15.80;99.90;15.90;100892.00;;;;4990968;27;99984;-69
2023/07/11 02:59:58;;;;;;;9.63;3.38;;;15.80;99.90;15.90;100895.00;;;;4990996;28;82712;-68
2023/07/11 03:02:24;;;;;;;5.97;3.85;;;15.80;99.90;15.80;100891.00;;;;4996449;28;111167;-67
2023/07/11 03:04:51;;;;;;;3.75;3.20;;;15.80;99.90;15.80;100892.00;;;;4992107;28;113878;-67
2023/07/11 03:07:17;;;;;;;2.72;2.47;;;15.80;99.90;15.80;100885.00;;;;4994535;27;82748;-67
2023/07/11 03:09:43;;;;;;;3.88;2.83;;;15.80;99.90;15.80;100894.00;;;;4994435;28;104219;-67
2023/07/11 03:12:09;;;;;;;3.13;2.63;;;15.70;99.90;15.80;100887.00;;;;4995338;28;112906;-67
2023/07/11 03:14:36;;;;;;;4.53;3.97;;;15.70;99.90;15.80;100896.00;;;;4995619;28;82702;-68
2023/07/11 03:17:02;;;;;;;3.30;2.83;;;15.70;99.90;15.70;100894.00;;;;4990163;28;82778;-66
2023/07/11 03:19:27;;;;;;;3.92;3.42;;;15.60;99.90;15.70;100890.00;;;;4990048;28;112264;-68
2023/07/11 03:21:53;;;;;;;3.83;3.20;;;15.60;99.90;15.70;100900.00;;;;4990534;28;112442;-67
2023/07/11 03:24:19;;;;;;;4.50;3.22;;;15.60;99.90;15.70;100901.00;;;;4992877;28;110382;-67
2023/07/11 03:26:46;;;;;;;3.70;2.97;;;15.60;99.90;15.70;100902.00;;;;4992126;28;82161;-67
2023/07/11 03:29:13;;;;;;;3.80;3.13;;;15.60;99.90;15.70;100908.00;;;;4994142;27;83769;-67
2023/07/11 03:31:40;;;;;;;6.03;3.30;;;15.60;99.90;15.70;100910.00;;;;4992416;28;83145;-67
2023/07/11 03:34:06;;;;;;;4.60;3.15;;;15.60;99.90;15.70;100909.00;;;;4989122;28;99857;-67
2023/07/11 03:36:31;;;;;;;3.28;2.92;;;15.60;99.90;15.70;100917.00;;;;4993151;28;107525;-67
2023/07/11 03:38:57;;;;;;;3.92;2.50;;;15.60;99.90;15.70;100908.00;;;;4987676;28;112934;-66
2023/07/11 03:41:22;;;;;;;4.47;3.10;;;15.60;99.90;15.70;100920.00;;;;4991587;28;111726;-67
2023/07/11 03:43:48;;;;;;;4.03;3.40;;;15.60;99.90;15.80;100910.00;;;;4990709;28;110694;-67
2023/07/11 03:46:17;;;;;;;5.80;3.88;;;15.60;99.90;15.80;100915.00;;;;5000742;28;103383;-67
2023/07/11 03:48:43;;;;;;;7.05;3.53;;;15.70;99.90;15.90;100910.00;;;;4988337;28;112462;-67
2023/07/11 03:51:08;;;;;;;4.72;3.42;;;15.80;99.90;15.90;100911.00;;;;5004227;28;112647;-67
2023/07/11 03:53:34;;;;;;;5.03;3.28;;;15.90;99.90;16.00;100910.00;;;;4989431;28;82673;-67
2023/07/11 03:56:00;;;;;;;6.50;3.53;;;15.90;99.90;16.10;100919.00;;;;4989741;28;107639;-67
2023/07/11 03:58:26;;;;;;;3.88;3.47;;;15.90;99.90;16.20;100911.00;;;;5000499;28;113487;-67
2023/07/11 04:00:51;;;;;;;4.10;3.17;;;16.10;99.90;16.30;100909.00;;;;4988386;28;84942;-67
2023/07/11 04:03:17;;;;;;;6.72;4.22;;;16.10;99.90;16.40;100915.00;;;;4992102;27;110244;-67
2023/07/11 04:05:43;;;;;;;7.45;3.33;;;16.20;99.90;16.50;100913.00;;;;4994007;28;109541;-67
2023/07/11 04:08:09;;;;;;;5.55;3.92;;;16.30;99.90;16.50;100918.00;;;;4990928;27;113749;-67
2023/07/11 04:10:35;;;;;;;5.93;3.35;;;16.40;99.90;16.60;100921.00;;;;4992860;28;111333;-68
2023/07/11 04:13:02;;;;;;;4.65;3.05;;;16.40;99.90;16.70;100922.00;;;;4991677;28;110646;-67
2023/07/11 04:15:28;;;;;;;3.45;3.03;;;16.50;99.90;16.70;100924.00;;;;4992526;28;82007;-67
2023/07/11 04:17:54;;;;;;;3.60;3.22;;;16.60;99.90;16.80;100923.00;;;;4989031;28;106553;-68
2023/07/11 04:20:20;;;;;;;3.25;2.80;;;16.70;99.90;16.90;100926.00;;;;4992871;28;100558;-67
2023/07/11 04:22:46;;;;;;;5.38;2.58;;;16.70;99.90;17.00;100931.00;;;;4989898;28;87228;-67
2023/07/11 04:25:11;;;;;;;3.28;2.83;;;16.80;99.90;17.10;100927.00;;;;4987705;28;108901;-67
2023/07/11 04:27:37;;;;;;;7.53;2.78;;;17.00;99.90;17.30;100923.00;;;;4992393;28;111514;-66
2023/07/11 04:30:04;;;;;;;4.70;3.33;;;17.10;99.90;17.40;100931.00;;;;4990812;27;107235;-68
2023/07/11 04:32:30;;;;;;;3.47;3.10;;;17.20;99.90;17.50;100931.00;;;;4990872;27;82528;-67
2023/07/11 04:34:56;;;;;;;3.08;2.78;;;17.30;99.90;17.60;100931.00;;;;4990316;27;83000;-67
2023/07/11 04:37:22;;;;;;;3.03;2.80;;;17.40;99.90;17.70;100935.00;;;;4989407;28;112562;-67
2023/07/11 04:39:47;;;;;;;4.90;3.25;;;17.50;99.90;17.80;100939.00;;;;4987686;28;112962;-68
2023/07/11 04:42:13;;;;;;;2.78;2.58;;;17.60;99.90;17.90;100941.00;;;;4989985;28;110358;-67
2023/07/11 04:44:39;;;;;;;4.18;3.05;;;17.70;99.90;18.00;100940.00;;;;4991223;28;83919;-68
2023/07/11 04:47:06;;;;;;;5.95;3.42;;;17.80;99.90;18.10;100943.00;;;;4993350;27;83889;-68
2023/07/11 04:49:32;;;;;;;3.17;2.88;;;17.90;99.90;18.20;100937.00;;;;4991329;28;84522;-68
2023/07/11 04:51:57;;;;;;;5.18;3.20;;;18.00;99.90;18.30;100932.00;;;;4993638;27;82510;-68
2023/07/11 04:54:23;;;;;;;3.10;2.80;;;18.10;99.90;18.40;100924.00;;;;4993251;28;108571;-68
2023/07/11 04:56:57;;;;;;;4.20;3.45;;;18.20;99.90;18.50;100915.00;;;;4993882;28;86995;-68
2023/07/11 04:59:23;;;;;;;3.97;3.65;;;18.30;99.90;18.70;100929.00;;;;4989332;28;82965;-67
2023/07/11 05:01:49;;;;;;;3.80;2.28;;;18.50;99.90;18.90;100930.00;;;;4991080;28;110372;-67
2023/07/11 05:04:14;;;;;;;4.22;2.53;;;18.70;99.90;19.00;100936.00;;;;4992187;27;81883;-67
2023/07/11 05:06:47;;;;;;;4.57;2.95;;;18.80;99.90;19.20;100932.00;;;;4989715;27;111529;-68
2023/07/11 05:09:15;;;;;;;5.55;3.42;;;19.00;99.90;19.40;100931.00;;;;4990484;27;83489;-68
2023/07/11 05:11:40;;;;;;;3.28;2.65;;;19.20;99.90;19.50;100930.00;;;;4988596;27;83761;-68
2023/07/11 05:14:06;;;;;;;3.50;2.90;;;19.30;99.90;19.70;100929.00;;;;4991101;28;107226;-68
2023/07/11 05:16:32;;;;;;;6.57;3.83;;;19.50;99.90;19.90;100928.00;;;;4991187;27;111865;-68
2023/07/11 05:18:58;;;;;;;6.05;3.20;;;19.70;99.90;20.00;100930.00;;;;4989927;27;83504;-67
2023/07/11 05:21:26;;;;;;;1.92;1.80;;;19.80;99.90;20.20;100931.00;;;;4989607;27;83099;-67
2023/07/11 05:23:52;;;;;;;3.20;2.58;;;20.00;99.90;20.30;100932.00;;;;4988639;27;82687;-68
2023/07/11 05:26:18;;;;;;;3.22;2.38;;;20.10;99.90;20.50;100928.00;;;;4990683;27;113662;-68
2023/07/11 05:28:45;;;;;;;4.30;3.17;;;20.30;99.90;20.60;100923.00;;;;4991270;27;82724;-68
2023/07/11 05:31:11;;;;;;;3.13;2.25;;;20.40;99.90;20.70;100925.00;;;;4986519;27;110926;-67
2023/07/11 05:33:37;;;;;;;3.10;2.67;;;20.50;99.90;20.80;100918.00;;;;4988174;28;108442;-67
2023/07/11 05:36:20;;;;;;;2.95;1.95;;;20.50;99.90;20.90;100906.00;;;;4989430;27;114549;-68
2023/07/11 05:38:47;;;;;;;5.07;2.88;;;20.70;99.90;21.10;100906.00;;;;4992723;28;84356;-69
2023/07/11 05:41:13;;;;;;;3.08;2.67;;;20.90;99.90;21.20;100913.00;;;;4991875;28;100007;-68
2023/07/11 05:43:39;;;;;;;2.35;1.85;;;21.00;99.90;21.40;100911.00;;;;4993025;28;96252;-68
2023/07/11 05:46:04;;;;;;;3.25;2.88;;;21.10;99.90;21.50;100923.00;;;;4995960;27;97697;-68
2023/07/11 05:48:31;;;;;;;2.47;2.28;;;21.30;99.90;21.70;100913.00;;;;4991139;27;98298;-68
2023/07/11 05:51:11;;;;;;;2.58;2.28;;;21.40;99.90;21.80;100917.00;;;;4992649;27;102330;-68
2023/07/11 05:53:37;;;;;;;3.05;2.60;;;21.50;99.90;21.90;100917.00;;;;4996506;28;81897;-68
2023/07/11 05:56:03;;;;;;;4.63;1.92;;;21.70;99.90;22.00;100907.00;;;;4993889;28;112546;-68
2023/07/11 05:58:31;;;;;;;3.65;2.05;;;21.80;99.90;22.20;100903.00;;;;4991204;28;101895;-68
2023/07/11 06:00:58;;;;;;;3.50;2.75;;;22.00;99.90;22.50;100911.00;;;;4992217;28;100155;-68
2023/07/11 06:03:26;;;;;;;3.80;1.98;;;22.20;99.90;22.70;100908.00;;;;4994924;28;82661;-68
2023/07/11 06:05:53;;;;;;;2.58;2.10;;;22.40;99.90;22.90;100907.00;;;;4990984;27;83683;-68
2023/07/11 06:08:20;;;;;;;2.17;1.63;;;22.60;99.90;23.00;100909.00;;;;4991577;28;104855;-68
2023/07/11 06:10:45;;;;;;;2.65;2.35;;;22.80;99.40;23.20;100910.00;;;;4993483;28;86192;-69
2023/07/11 06:13:14;;;;;;;3.10;1.80;;;22.90;98.80;23.30;100897.00;;;;4991462;28;108085;-68
2023/07/11 06:15:40;;;;;;;1.95;1.58;;;23.10;98.20;23.40;100908.00;;;;4995520;28;102255;-68
2023/07/11 06:18:06;;;;;;;2.33;1.92;;;23.20;98.00;23.60;100899.00;;;;4993896;28;84111;-68
2023/07/11 06:20:32;;;;;;;3.78;2.47;;;23.30;97.50;23.80;100903.00;;;;4990199;28;82850;-68
2023/07/11 06:22:59;;;;;;;2.67;2.25;;;23.50;97.10;24.00;100905.00;;;;4994717;28;109396;-68
2023/07/11 06:25:24;;;;;;;2.38;2.17;;;23.70;96.70;24.10;100906.00;;;;4994770;28;84474;-69
2023/07/11 06:27:50;;;;;;;3.72;2.28;;;23.80;96.20;24.20;100906.00;;;;4995252;28;82790;-68
2023/07/11 06:30:16;;;;;;;3.20;2.90;;;24.00;95.50;24.20;100909.00;;;;4992267;27;91583;-68
2023/07/11 06:32:41;;;;;;;2.50;2.30;;;24.00;95.30;24.30;100910.00;;;;4990312;28;108961;-68
2023/07/11 06:35:08;;;;;;;4.82;2.50;;;24.00;95.00;24.40;100899.00;;;;4991036;27;112000;-69
2023/07/11 06:37:34;;;;;;;2.75;2.55;;;24.10;94.80;24.60;100902.00;;;;4992827;28;82906;-68
2023/07/11 06:40:00;;;;;;;4.55;2.80;;;24.30;94.50;24.70;100905.00;;;;4991320;28;94302;-67
2023/07/11 06:42:25;;;;;;;3.97;2.53;;;24.40;94.10;24.80;100893.00;;;;4991736;28;111095;-67
2023/07/11 06:44:51;;;;;;;3.30;2.55;;;24.50;93.90;24.90;100897.00;;;;4990257;27;88053;-68
2023/07/11 06:47:17;;;;;;;2.53;2.22;;;24.60;93.60;25.10;100899.00;;;;4992970;28;111701;-67
2023/07/11 06:49:43;;;;;;;2.00;1.83;;;24.80;93.30;25.30;100890.00;;;;4993729;27;83877;-68
2023/07/11 06:52:10;;;;;;;2.13;1.90;;;24.90;92.90;25.30;100901.00;;;;4996302;28;83394;-69
2023/07/11 06:54:35;;;;;;;2.60;2.25;;;25.00;92.50;25.40;100894.00;;;;4993679;28;94933;-69
2023/07/11 06:57:01;;;;;;;2.05;1.50;;;25.10;92.30;25.50;100899.00;;;;4993116;28;112289;-68
2023/07/11 06:59:27;;;;;;;2.80;2.22;;;25.20;91.70;25.60;100900.00;;;;4992491;28;110356;-67
2023/07/11 07:01:52;;;;;;;2.03;1.65;;;25.30;91.70;25.70;100906.00;;;;4991875;27;82981;-67
2023/07/11 07:04:18;;;;;;;9.68;2.67;;;25.40;91.70;25.90;100906.00;;;;4994551;28;111981;-67
2023/07/11 07:06:44;;;;;;;3.85;2.03;;;25.60;91.30;26.10;100895.00;;;;4993146;28;111164;-68
2023/07/11 07:09:10;;;;;;;2.83;2.15;;;25.80;90.70;26.30;100901.00;;;;4989166;27;110721;-67
2023/07/11 07:11:37;;;;;;;2.60;2.40;;;26.00;90.20;26.40;100896.00;;;;4995383;28;97538;-69
2023/07/11 07:14:09;;;;;;;2.20;1.60;;;26.10;89.90;26.50;100899.00;;;;4994871;28;83471;-69
2023/07/11 07:16:39;;;;;;;1.90;1.50;;;26.20;88.40;26.50;100893.00;;;;4990210;28;84640;-69
2023/07/11 07:19:11;;;;;;;3.45;1.70;;;26.30;87.10;26.70;100889.00;;;;4988091;28;109996;-70
2023/07/11 07:21:37;;;;;;;1.90;1.60;;;26.40;87.00;27.00;100890.00;;;;4992416;28;82746;-68
2023/07/11 07:24:03;;;;;;;3.15;1.95;;;26.70;85.70;27.20;100888.00;;;;4989152;27;113533;-68
2023/07/11 07:26:29;;;;;;;1.52;1.42;;;26.80;84.00;27.30;100886.00;;;;4991242;28;83775;-69
2023/07/11 07:28:55;;;;;;;2.25;1.65;;;27.00;80.70;27.50;100886.00;;;;4990671;28;83048;-69
2023/07/11 07:31:22;;;;;;;6.78;1.42;;;27.20;80.20;27.70;100883.00;;;;4990122;28;97746;-68
2023/07/11 07:33:48;;;;;;;2.70;1.45;;;27.40;78.00;28.00;100889.00;;;;4992970;28;83837;-69
2023/07/11 07:36:13;;;;;;;1.52;1.30;;;27.70;77.20;28.30;100887.00;;;;4998203;28;111860;-67
2023/07/11 07:38:39;;;;;;;2.33;1.65;;;27.90;75.20;28.50;100884.00;;;;4992257;28;110472;-68
2023/07/11 07:41:08;;;;;;;12.05;1.70;;;28.10;74.60;28.60;100885.00;;;;4992071;28;107747;-67
2023/07/11 07:43:36;;;;;;;3.13;1.73;;;28.30;73.40;28.70;100883.00;;;;4989526;27;94450;-68
2023/07/11 07:46:03;;;;;;;2.20;1.52;;;28.40;71.50;28.70;100884.00;;;;4992551;28;82789;-67
2023/07/11 07:48:30;;;;;;;2.22;1.50;;;28.40;70.50;28.80;100879.00;;;;4993561;27;100539;-67
2023/07/11 07:51:10;;;;;;;3.13;1.60;;;28.50;69.70;29.00;100878.00;;;;4991308;27;101940;-67
2023/07/11 07:53:35;;;;;;;2.97;1.60;;;28.70;69.10;29.20;100873.00;;;;4992862;28;82897;-67
2023/07/11 07:56:04;;;;;;;1.20;1.10;;;28.90;68.60;29.50;100865.00;;;;4990040;28;112522;-67
2023/07/11 07:58:31;;;;;;;2.25;1.58;;;29.10;67.30;29.70;100866.00;;;;4993212;27;82611;-68
2023/07/11 08:00:56;;;;;;;2.55;1.13;;;29.30;62.30;29.70;100874.00;;;;4992907;28;82897;-68
2023/07/11 08:03:25;;;;;;;1.70;1.10;;;29.40;61.70;29.80;100875.00;;;;4989798;27;113133;-68
2023/07/11 08:05:54;;;;;;;1.98;0.95;;;29.50;60.40;29.70;100869.00;;;;4992015;27;82815;-68
2023/07/11 08:08:20;;;;;;;1.00;1.00;;;29.50;59.50;29.60;100857.00;;;;4994736;28;83767;-67
2023/07/11 08:10:46;;;;;;;1.85;1.05;;;29.40;59.60;29.60;100856.00;;;;4993639;28;101590;-68
2023/07/11 08:13:12;;;;;;;1.25;0.82;;;29.40;59.50;29.70;100851.00;;;;4992246;28;82624;-68
2023/07/11 08:15:37;;;;;;;2.20;1.05;;;29.40;59.40;29.80;100851.00;;;;4988019;28;110982;-68
2023/07/11 08:18:03;;;;;;;1.30;0.93;;;29.50;59.00;29.90;100846.00;;;;4994330;28;109560;-68
2023/07/11 08:20:29;;;;;;;0.95;0.95;;;29.60;57.50;29.80;100845.00;;;;4992934;28;107791;-67
2023/07/11 08:22:54;;;;;;;1.27;0.85;;;29.60;56.80;30.00;100844.00;;;;4991378;28;111856;-67
2023/07/11 08:25:20;;;;;;;1.65;0.50;;;29.70;57.10;30.30;100835.00;;;;4993242;28;83398;-67
2023/07/11 08:27:46;;;;;;;1.20;0.60;;;29.90;56.40;30.50;100838.00;;;;4990015;28;109148;-70
2023/07/11 08:30:12;;;;;;;3.33;1.25;;;30.10;55.90;30.80;100835.00;;;;4992016;28;106988;-70
2023/07/11 08:32:38;;;;;;;0.70;0.70;;;30.40;55.40;31.10;100832.00;;;;4999745;28;113329;-70
2023/07/11 08:35:06;;;;;;;0.80;0.80;;;30.70;54.10;31.30;100823.00;;;;4994912;27;82849;-69
2023/07/11 08:37:33;;;;;;;1.20;0.80;;;30.90;53.00;31.50;100823.00;;;;4994943;28;82936;-71
2023/07/11 08:40:00;;;;;;;0.57;0.57;;;31.10;52.50;31.70;100818.00;;;;4987012;28;82710;-71
2023/07/11 08:42:36;;;;;;;1.30;0.82;;;31.30;52.30;32.00;100827.00;;;;4988249;28;84689;-70
2023/07/11 08:45:27;;;;;;;0.55;0.50;;;31.60;51.90;32.30;100822.00;;;;4993085;28;82183;-71
2023/07/11 08:48:03;;;;;;;0.90;0.90;;;31.90;51.60;32.50;100821.00;;;;4994572;28;98794;-70
2023/07/11 08:50:53;;;;;;;1.48;1.38;;;32.10;51.00;32.80;100823.00;;;;4972555;28;83078;-70
2023/07/11 08:53:28;;;;;;;2.17;1.02;;;32.40;49.50;32.80;100821.00;;;;4970259;28;84705;-70
2023/07/11 08:56:00;;;;;;;0.80;0.60;;;32.40;48.50;33.00;100819.00;;;;5004675;27;102829;-71
2023/07/11 08:58:33;;;;;;;1.70;1.13;;;32.60;48.50;33.20;100822.00;;;;4988108;28;99363;-71
2023/07/11 09:01:03;;;;;;;3.53;0.95;;;32.70;47.70;33.20;100820.00;;;;4997199;28;100076;-72
2023/07/11 09:03:42;;;;;;;0.70;0.60;;;32.80;46.80;33.30;100819.00;;;;4992208;28;93385;-71
2023/07/11 09:06:15;;;;;;;1.17;0.90;;;32.90;46.60;33.30;100811.00;;;;4991243;28;83481;-70
2023/07/11 09:08:44;;;;;;;1.48;1.00;;;32.90;45.40;33.30;100818.00;;;;4989618;28;85607;-70
2023/07/11 09:11:40;;;;;;;1.17;0.75;;;32.90;45.50;33.30;100815.00;;;;5004863;27;92992;-72
2023/07/11 09:15:16;;;;;;;1.02;0.85;;;33.00;45.30;33.40;100811.00;;;;4998708;28;93754;-71
2023/07/11 09:18:23;;;;;;;0.95;0.40;;;33.10;44.80;33.30;100809.00;;;;4911477;28;82720;-68
2023/07/11 09:21:08;;;;;;;0.70;0.70;;;33.10;42.40;33.00;100799.00;;;;4992118;28;84123;-71
2023/07/11 09:24:03;;;;;;;2.90;0.88;;;32.80;42.40;32.60;100810.00;;;;4993984;28;82896;-70
2023/07/11 09:26:43;;;;;;;1.13;1.05;;;32.50;41.60;32.10;100799.00;;;;4996573;28;82891;-70
2023/07/11 09:29:09;;;;;;;0.60;0.60;;;32.00;41.50;32.00;100802.00;;;;4996555;28;86767;-69
2023/07/11 09:31:44;;;;;;;0.77;0.32;;;31.80;42.30;32.30;100793.00;;;;4998568;28;108376;-72
2023/07/11 09:34:21;;;;;;;1.05;0.60;;;31.80;42.60;32.60;100795.00;;;;5000861;28;82990;-70
2023/07/11 09:36:49;;;;;;;0.80;0.55;;;32.10;43.00;32.90;100787.00;;;;4998199;28;99579;-70
2023/07/11 09:39:35;;;;;;;1.02;0.60;;;32.40;43.70;33.30;100785.00;;;;4995234;28;101546;-70
2023/07/11 09:42:05;;;;;;;1.17;0.63;;;32.70;43.00;33.60;100783.00;;;;4996234;28;82486;-70
2023/07/11 09:44:30;;;;;;;1.48;0.88;;;33.00;42.70;33.80;100782.00;;;;5010007;27;82605;-71
2023/07/11 09:47:03;;;;;;;3.60;1.05;;;33.30;41.50;33.80;100773.00;;;;4994228;28;112472;-70
2023/07/11 09:49:30;;;;;;;1.33;0.80;;;33.30;40.80;33.60;100771.00;;;;4998838;27;107843;-69
2023/07/11 09:51:59;;;;;;;1.10;0.65;;;33.20;39.60;33.50;100768.00;;;;4993506;28;82916;-71
2023/07/11 09:54:28;;;;;;;0.90;0.80;;;33.10;39.20;33.30;100770.00;;;;4998663;27;83004;-69
2023/07/11 09:56:57;;;;;;;1.33;0.80;;;32.90;39.20;33.30;100764.00;;;;4994011;28;82798;-72
2023/07/11 09:59:23;;;;;;;2.22;0.63;;;32.80;39.80;33.40;100765.00;;;;4992654;28;91562;-71
2023/07/11 10:01:55;;;;;;;0.30;0.30;;;32.90;39.90;33.40;100760.00;;;;4990077;28;83021;-70
2023/07/11 10:04:26;;;;;;;1.20;0.80;;;33.00;39.30;33.60;100763.00;;;;4994322;28;83186;-70
2023/07/11 10:07:05;;;;;;;2.03;0.60;;;33.00;39.80;33.90;100754.00;;;;4990945;28;101133;-69
2023/07/11 10:09:37;;;;;;;1.88;0.95;;;33.30;40.20;34.20;100757.00;;;;4995726;28;82656;-70
2023/07/11 10:12:24;;;;;;;0.85;0.77;;;33.60;39.20;34.20;100749.00;;;;4995668;28;83884;-69
2023/07/11 10:15:01;;;;;;;2.55;0.50;;;33.70;37.80;34.00;100744.00;;;;4993162;28;99535;-71
2023/07/11 10:17:36;;;;;;;2.60;0.93;;;33.50;37.60;33.90;100748.00;;;;4994834;28;82761;-71
2023/07/11 10:20:06;;;;;;;2.42;0.70;;;33.40;38.00;33.90;100738.00;;;;4991170;28;82680;-71
2023/07/11 10:22:33;;;;;;;0.50;0.40;;;33.40;37.40;33.80;100738.00;;;;4992602;28;83151;-69
2023/07/11 10:25:22;;;;;;;1.52;1.08;;;33.40;37.20;34.00;100726.00;;;;4995635;27;82667;-69
2023/07/11 10:27:58;;;;;;;0.30;0.30;;;33.40;37.30;34.20;100731.00;;;;4992138;28;82887;-70
2023/07/11 10:30:29;;;;;;;0.70;0.70;;;33.60;37.40;34.30;100721.00;;;;4992847;28;91493;-70
2023/07/11 10:33:03;;;;;;;2.22;0.85;;;33.70;36.30;34.00;100722.00;;;;4995848;28;98883;-69
2023/07/11 10:35:30;;;;;;;0.70;0.57;;;33.50;36.40;33.90;100724.00;;;;4986467;28;97769;-71
2023/07/11 10:38:13;;;;;;;0.88;0.70;;;33.40;37.20;34.20;100722.00;;;;4990663;28;113698;-68
2023/07/11 10:40:45;;;;;;;1.00;0.88;;;33.50;37.50;34.50;100724.00;;;;4993234;28;83459;-69
2023/07/11 10:43:36;;;;;;;1.50;0.80;;;33.80;36.50;34.30;100712.00;;;;4996570;28;83674;-70
2023/07/11 10:46:17;;;;;;;0.93;0.60;;;33.70;36.30;34.10;100703.00;;;;4977048;28;104550;-69
2023/07/11 10:48:52;;;;;;;1.08;0.95;;;33.60;35.90;33.90;100701.00;;;;4993264;27;82891;-70
2023/07/11 10:51:37;;;;;;;0.60;0.50;;;33.50;36.30;34.30;100696.00;;;;4994034;28;86143;-70